createdAt,value
2018-09-09T00:00:16.143Z,1019.41
2018-09-09T00:01:16.169Z,1019.46
2018-09-09T00:02:16.190Z,1019.49
2018-09-09T00:03:16.218Z,1019.46
2018-09-09T00:04:16.237Z,1019.46
2018-09-09T00:05:16.256Z,1019.46
2018-09-09T00:06:16.283Z,1019.43
2018-09-09T00:07:16.303Z,1019.40
2018-09-09T00:08:16.325Z,1019.41
2018-09-09T00:09:16.352Z,1019.45
2018-09-09T00:10:16.377Z,1019.45
2018-09-09T00:11:16.395Z,1019.47
2018-09-09T00:12:16.424Z,1019.40
2018-09-09T00:13:16.441Z,1019.43
2018-09-09T00:14:16.465Z,1019.44
2018-09-09T00:15:16.491Z,1019.43
2018-09-09T00:16:16.510Z,1019.42
2018-09-09T00:17:16.538Z,1019.43
2018-09-09T00:18:16.561Z,1019.41
2018-09-09T00:19:16.582Z,1019.46
2018-09-09T00:20:16.619Z,1019.47
2018-09-09T00:21:16.626Z,1019.44
2018-09-09T00:22:16.649Z,1019.45
2018-09-09T00:23:16.673Z,1019.46
2018-09-09T00:24:16.694Z,1019.44
2018-09-09T00:25:16.729Z,1019.45
2018-09-09T00:26:16.754Z,1019.44
2018-09-09T00:27:16.768Z,1019.47
2018-09-09T00:28:16.793Z,1019.47
2018-09-09T00:29:16.821Z,1019.51
2018-09-09T00:30:16.837Z,1019.51
2018-09-09T00:31:16.857Z,1019.47
2018-09-09T00:32:16.881Z,1019.49
2018-09-09T00:33:16.908Z,1019.49
2018-09-09T00:34:16.940Z,1019.51
2018-09-09T00:35:16.952Z,1019.47
2018-09-09T00:36:16.977Z,1019.46
2018-09-09T00:37:16.999Z,1019.46
2018-09-09T00:38:17.025Z,1019.43
2018-09-09T00:39:17.044Z,1019.45
2018-09-09T00:40:17.070Z,1019.45
2018-09-09T00:41:17.087Z,1019.48
2018-09-09T00:42:17.114Z,1019.48
2018-09-09T00:43:17.131Z,1019.46
2018-09-09T00:44:17.158Z,1019.48
2018-09-09T00:45:17.183Z,1019.46
2018-09-09T00:46:17.210Z,1019.49
2018-09-09T00:47:17.227Z,1019.45
2018-09-09T00:48:17.250Z,1019.46
2018-09-09T00:49:17.275Z,1019.47
2018-09-09T00:50:17.296Z,1019.48
2018-09-09T00:51:17.323Z,1019.48
2018-09-09T00:52:17.351Z,1019.46
2018-09-09T00:53:17.363Z,1019.45
2018-09-09T00:54:17.387Z,1019.47
2018-09-09T00:55:17.419Z,1019.46
2018-09-09T00:56:17.436Z,1019.45
2018-09-09T00:57:17.464Z,1019.43
2018-09-09T00:58:17.490Z,1019.47
2018-09-09T00:59:17.505Z,1019.45
2018-09-09T01:00:17.536Z,1019.43
2018-09-09T01:01:17.553Z,1019.42
2018-09-09T01:02:17.573Z,1019.39
2018-09-09T01:03:17.601Z,1019.41
2018-09-09T01:04:17.621Z,1019.37
2018-09-09T01:05:17.645Z,1019.38
2018-09-09T01:06:17.667Z,1019.40
2018-09-09T01:07:17.690Z,1019.36
2018-09-09T01:08:17.707Z,1019.43
2018-09-09T01:09:17.737Z,1019.39
2018-09-09T01:10:17.759Z,1019.38
2018-09-09T01:11:17.785Z,1019.40
2018-09-09T01:12:17.803Z,1019.40
2018-09-09T01:13:17.830Z,1019.42
2018-09-09T01:14:17.852Z,1019.38
2018-09-09T01:15:17.889Z,1019.38
2018-09-09T01:16:17.897Z,1019.35
2018-09-09T01:17:17.922Z,1019.40
2018-09-09T01:18:17.945Z,1019.38
2018-09-09T01:19:17.964Z,1019.36
2018-09-09T01:20:17.988Z,1019.39
2018-09-09T01:21:18.010Z,1019.35
2018-09-09T01:22:18.034Z,1019.31
2018-09-09T01:23:18.059Z,1019.36
2018-09-09T01:24:18.080Z,1019.34
2018-09-09T01:25:18.105Z,1019.33
2018-09-09T01:26:18.128Z,1019.32
2018-09-09T01:27:18.154Z,1019.33
2018-09-09T01:28:18.172Z,1019.38
2018-09-09T01:29:18.194Z,1019.36
2018-09-09T01:30:18.219Z,1019.31
2018-09-09T01:31:18.236Z,1019.33
2018-09-09T01:32:18.263Z,1019.36
2018-09-09T01:33:18.286Z,1019.35
2018-09-09T01:34:18.318Z,1019.36
2018-09-09T01:35:18.332Z,1019.36
2018-09-09T01:36:18.356Z,1019.33
2018-09-09T01:37:18.374Z,1019.35
2018-09-09T01:38:18.402Z,1019.33
2018-09-09T01:39:18.422Z,1019.37
2018-09-09T01:40:18.440Z,1019.40
2018-09-09T01:41:18.470Z,1019.35
2018-09-09T01:42:18.495Z,1019.37
2018-09-09T01:43:18.516Z,1019.38
2018-09-09T01:44:18.543Z,1019.39
2018-09-09T01:45:18.556Z,1019.45
2018-09-09T01:46:18.583Z,1019.40
2018-09-09T01:47:18.607Z,1019.37
2018-09-09T01:48:18.626Z,1019.39
2018-09-09T01:49:18.652Z,1019.39
2018-09-09T01:50:18.673Z,1019.35
2018-09-09T01:51:18.696Z,1019.40
2018-09-09T01:52:18.719Z,1019.36
2018-09-09T01:53:18.742Z,1019.33
2018-09-09T01:54:18.769Z,1019.36
2018-09-09T01:55:18.784Z,1019.34
2018-09-09T01:56:18.812Z,1019.36
2018-09-09T01:57:18.834Z,1019.33
2018-09-09T01:58:18.854Z,1019.36
2018-09-09T01:59:18.875Z,1019.38
2018-09-09T02:00:18.902Z,1019.40
2018-09-09T02:01:18.923Z,1019.41
2018-09-09T02:02:18.944Z,1019.41
2018-09-09T02:03:18.966Z,1019.38
2018-09-09T02:04:18.992Z,1019.39
2018-09-09T02:05:19.015Z,1019.36
2018-09-09T02:06:19.036Z,1019.39
2018-09-09T02:07:19.058Z,1019.39
2018-09-09T02:08:19.082Z,1019.36
2018-09-09T02:09:19.106Z,1019.36
2018-09-09T02:10:19.134Z,1019.39
2018-09-09T02:11:19.154Z,1019.37
2018-09-09T02:12:19.173Z,1019.41
2018-09-09T02:13:19.194Z,1019.39
2018-09-09T02:14:19.220Z,1019.37
2018-09-09T02:15:19.241Z,1019.39
2018-09-09T02:16:19.260Z,1019.39
2018-09-09T02:17:19.289Z,1019.36
2018-09-09T02:18:19.308Z,1019.36
2018-09-09T02:19:19.327Z,1019.36
2018-09-09T02:20:19.402Z,1019.36
2018-09-09T02:21:19.380Z,1019.35
2018-09-09T02:22:19.397Z,1019.33
2018-09-09T02:23:19.420Z,1019.31
2018-09-09T02:24:19.444Z,1019.30
2018-09-09T02:25:19.470Z,1019.31
2018-09-09T02:26:19.506Z,1019.32
2018-09-09T02:27:19.508Z,1019.34
2018-09-09T02:28:19.536Z,1019.34
2018-09-09T02:29:19.560Z,1019.34
2018-09-09T02:30:19.580Z,1019.39
2018-09-09T02:31:19.604Z,1019.38
2018-09-09T02:32:19.622Z,1019.40
2018-09-09T02:33:19.648Z,1019.38
2018-09-09T02:34:19.718Z,1019.40
2018-09-09T02:35:19.692Z,1019.41
2018-09-09T02:36:19.720Z,1019.41
2018-09-09T02:37:19.740Z,1019.36
2018-09-09T02:38:19.765Z,1019.36
2018-09-09T02:39:19.784Z,1019.34
2018-09-09T02:40:19.803Z,1019.32
2018-09-09T02:41:19.832Z,1019.32
2018-09-09T02:42:19.850Z,1019.33
2018-09-09T02:43:19.874Z,1019.32
2018-09-09T02:44:19.894Z,1019.33
2018-09-09T02:45:19.920Z,1019.35
2018-09-09T02:46:19.941Z,1019.33
2018-09-09T02:47:19.971Z,1019.35
2018-09-09T02:48:19.988Z,1019.34
2018-09-09T02:49:20.009Z,1019.37
2018-09-09T02:50:20.037Z,1019.34
2018-09-09T02:51:20.054Z,1019.38
2018-09-09T02:52:20.076Z,1019.36
2018-09-09T02:53:20.100Z,1019.35
2018-09-09T02:54:20.134Z,1019.34
2018-09-09T02:55:20.144Z,1019.34
2018-09-09T02:56:20.191Z,1019.37
2018-09-09T02:57:20.190Z,1019.30
2018-09-09T02:58:20.218Z,1019.29
2018-09-09T02:59:20.240Z,1019.29
2018-09-09T03:00:20.257Z,1019.30
2018-09-09T03:01:20.283Z,1019.31
2018-09-09T03:02:20.309Z,1019.32
2018-09-09T03:03:20.326Z,1019.31
2018-09-09T03:04:20.351Z,1019.27
2018-09-09T03:05:20.372Z,1019.26
2018-09-09T03:06:20.406Z,1019.28
2018-09-09T03:07:20.419Z,1019.26
2018-09-09T03:08:20.446Z,1019.26
2018-09-09T03:09:20.461Z,1019.28
2018-09-09T03:10:20.641Z,1019.28
2018-09-09T03:11:20.509Z,1019.30
2018-09-09T03:12:20.531Z,1019.26
2018-09-09T03:13:20.552Z,1019.31
2018-09-09T03:14:20.579Z,1019.30
2018-09-09T03:15:20.603Z,1019.28
2018-09-09T03:16:20.624Z,1019.31
2018-09-09T03:17:20.645Z,1019.23
2018-09-09T03:18:20.667Z,1019.26
2018-09-09T03:19:20.686Z,1019.26
2018-09-09T03:20:20.713Z,1019.27
2018-09-09T03:21:20.737Z,1019.30
2018-09-09T03:22:20.761Z,1019.28
2018-09-09T03:23:20.779Z,1019.27
2018-09-09T03:24:20.807Z,1019.30
2018-09-09T03:25:20.825Z,1019.25
2018-09-09T03:26:20.847Z,1019.24
2018-09-09T03:27:20.872Z,1019.23
2018-09-09T03:28:20.923Z,1019.23
2018-09-09T03:29:20.917Z,1019.20
2018-09-09T03:30:20.941Z,1019.22
2018-09-09T03:31:20.961Z,1019.18
2018-09-09T03:32:20.990Z,1019.18
2018-09-09T03:33:21.007Z,1019.16
2018-09-09T03:34:21.024Z,1019.17
2018-09-09T03:35:21.045Z,1019.17
2018-09-09T03:36:21.075Z,1019.16
2018-09-09T03:37:21.095Z,1019.14
2018-09-09T03:38:21.115Z,1019.11
2018-09-09T03:39:21.140Z,1019.11
2018-09-09T03:40:21.161Z,1019.11
2018-09-09T03:41:21.192Z,1019.07
2018-09-09T03:42:21.205Z,1019.11
2018-09-09T03:43:21.226Z,1019.08
2018-09-09T03:44:21.251Z,1019.03
2018-09-09T03:45:21.273Z,1019.08
2018-09-09T03:46:21.297Z,1019.09
2018-09-09T03:47:21.320Z,1019.05
2018-09-09T03:48:21.341Z,1019.05
2018-09-09T03:49:21.367Z,1019.07
2018-09-09T03:50:21.391Z,1019.06
2018-09-09T03:51:21.406Z,1019.08
2018-09-09T03:52:21.434Z,1019.08
2018-09-09T03:53:21.456Z,1019.09
2018-09-09T03:54:21.475Z,1019.06
2018-09-09T03:55:21.497Z,1019.07
2018-09-09T03:56:21.529Z,1019.04
2018-09-09T03:57:21.557Z,1019.05
2018-09-09T03:58:21.565Z,1019.05
2018-09-09T03:59:21.585Z,1019.06
2018-09-09T04:00:21.607Z,1019.06
2018-09-09T04:01:21.633Z,1019.07
2018-09-09T04:02:21.657Z,1019.09
2018-09-09T04:03:21.673Z,1019.08
2018-09-09T04:04:21.705Z,1019.08
2018-09-09T04:05:21.727Z,1019.07
2018-09-09T04:06:21.752Z,1019.12
2018-09-09T04:07:21.773Z,1019.14
2018-09-09T04:08:21.793Z,1019.15
2018-09-09T04:09:21.815Z,1019.15
2018-09-09T04:10:21.837Z,1019.15
2018-09-09T04:11:21.865Z,1019.13
2018-09-09T04:12:21.880Z,1019.15
2018-09-09T04:13:21.901Z,1019.19
2018-09-09T04:14:21.927Z,1019.16
2018-09-09T04:15:21.945Z,1019.19
2018-09-09T04:16:21.972Z,1019.17
2018-09-09T04:17:21.997Z,1019.19
2018-09-09T04:18:22.016Z,1019.21
2018-09-09T04:19:22.034Z,1019.20
2018-09-09T04:20:22.061Z,1019.21
2018-09-09T04:21:22.089Z,1019.20
2018-09-09T04:22:22.107Z,1019.24
2018-09-09T04:23:22.127Z,1019.22
2018-09-09T04:24:22.149Z,1019.22
2018-09-09T04:25:22.173Z,1019.23
2018-09-09T04:26:22.198Z,1019.27
2018-09-09T04:27:22.217Z,1019.26
2018-09-09T04:28:22.241Z,1019.24
2018-09-09T04:29:22.265Z,1019.23
2018-09-09T04:30:22.293Z,1019.24
2018-09-09T04:31:22.309Z,1019.22
2018-09-09T04:32:22.329Z,1019.20
2018-09-09T04:33:22.351Z,1019.24
2018-09-09T04:34:22.377Z,1019.21
2018-09-09T04:35:22.392Z,1019.24
2018-09-09T04:36:22.423Z,1019.23
2018-09-09T04:37:22.442Z,1019.25
2018-09-09T04:38:22.465Z,1019.23
2018-09-09T04:39:22.486Z,1019.25
2018-09-09T04:40:22.510Z,1019.23
2018-09-09T04:41:22.537Z,1019.25
2018-09-09T04:42:22.557Z,1019.29
2018-09-09T04:43:22.581Z,1019.30
2018-09-09T04:44:22.600Z,1019.30
2018-09-09T04:45:22.620Z,1019.29
2018-09-09T04:46:22.685Z,1019.34
2018-09-09T04:47:22.667Z,1019.32
2018-09-09T04:48:22.692Z,1019.34
2018-09-09T04:49:22.715Z,1019.36
2018-09-09T04:50:22.733Z,1019.38
2018-09-09T04:51:22.757Z,1019.42
2018-09-09T04:52:22.779Z,1019.42
2018-09-09T04:53:22.807Z,1019.43
2018-09-09T04:54:22.823Z,1019.45
2018-09-09T04:55:22.844Z,1019.42
2018-09-09T04:56:22.873Z,1019.43
2018-09-09T04:57:22.895Z,1019.45
2018-09-09T04:58:22.913Z,1019.43
2018-09-09T04:59:22.936Z,1019.44
2018-09-09T05:00:22.959Z,1019.45
2018-09-09T05:01:23.064Z,1019.47
2018-09-09T05:02:23.003Z,1019.50
2018-09-09T05:03:23.083Z,1019.45
2018-09-09T05:04:23.053Z,1019.47
2018-09-09T05:05:23.077Z,1019.49
2018-09-09T05:06:23.096Z,1019.49
2018-09-09T05:07:23.117Z,1019.49
2018-09-09T05:08:23.143Z,1019.52
2018-09-09T05:09:23.164Z,1019.53
2018-09-09T05:10:23.187Z,1019.52
2018-09-09T05:11:23.207Z,1019.57
2018-09-09T05:12:23.239Z,1019.55
2018-09-09T05:13:23.253Z,1019.56
2018-09-09T05:14:23.271Z,1019.56
2018-09-09T05:15:23.305Z,1019.59
2018-09-09T05:16:23.321Z,1019.57
2018-09-09T05:17:23.347Z,1019.58
2018-09-09T05:18:23.365Z,1019.60
2018-09-09T05:19:23.387Z,1019.60
2018-09-09T05:20:23.413Z,1019.61
2018-09-09T05:21:23.434Z,1019.64
2018-09-09T05:22:23.452Z,1019.65
2018-09-09T05:23:23.479Z,1019.65
2018-09-09T05:24:23.506Z,1019.67
2018-09-09T05:25:23.524Z,1019.71
2018-09-09T05:26:23.543Z,1019.73
2018-09-09T05:27:23.573Z,1019.72
2018-09-09T05:28:23.593Z,1019.75
2018-09-09T05:29:23.617Z,1019.76
2018-09-09T05:30:23.640Z,1019.71
2018-09-09T05:31:23.655Z,1019.72
2018-09-09T05:32:23.681Z,1019.77
2018-09-09T05:33:23.706Z,1019.73
2018-09-09T05:34:23.729Z,1019.75
2018-09-09T05:35:23.751Z,1019.74
2018-09-09T05:36:23.771Z,1019.76
2018-09-09T05:37:23.793Z,1019.73
2018-09-09T05:38:23.816Z,1019.76
2018-09-09T05:39:23.844Z,1019.74
2018-09-09T05:40:23.857Z,1019.73
2018-09-09T05:41:23.881Z,1019.71
2018-09-09T05:42:23.993Z,1019.74
2018-09-09T05:43:23.927Z,1019.75
2018-09-09T05:44:23.953Z,1019.77
2018-09-09T05:45:23.983Z,1019.74
2018-09-09T05:46:24.002Z,1019.78
2018-09-09T05:47:24.019Z,1019.78
2018-09-09T05:48:24.041Z,1019.78
2018-09-09T05:49:24.065Z,1019.82
2018-09-09T05:50:24.091Z,1019.84
2018-09-09T05:51:24.110Z,1019.85
2018-09-09T05:52:24.137Z,1019.86
2018-09-09T05:53:24.159Z,1019.90
2018-09-09T05:54:24.180Z,1019.87
2018-09-09T05:55:24.201Z,1019.91
2018-09-09T05:56:24.221Z,1019.89
2018-09-09T05:57:24.306Z,1019.90
2018-09-09T05:58:24.268Z,1019.86
2018-09-09T05:59:24.292Z,1019.86
2018-09-09T06:00:24.313Z,1019.86
2018-09-09T06:01:24.338Z,1019.87
2018-09-09T06:02:24.367Z,1019.91
2018-09-09T06:03:24.380Z,1019.87
2018-09-09T06:04:24.402Z,1019.87
2018-09-09T06:05:24.436Z,1019.89
2018-09-09T06:06:24.457Z,1019.91
2018-09-09T06:07:24.490Z,1019.91
2018-09-09T06:08:24.500Z,1019.91
2018-09-09T06:09:24.524Z,1019.89
2018-09-09T06:10:24.547Z,1019.89
2018-09-09T06:11:24.563Z,1019.90
2018-09-09T06:12:24.592Z,1019.94
2018-09-09T06:13:24.615Z,1019.93
2018-09-09T06:14:24.632Z,1019.91
2018-09-09T06:15:24.659Z,1019.94
2018-09-09T06:16:24.684Z,1019.90
2018-09-09T06:17:24.705Z,1019.95
2018-09-09T06:18:24.730Z,1019.94
2018-09-09T06:19:24.747Z,1019.94
2018-09-09T06:20:24.772Z,1019.93
2018-09-09T06:21:24.800Z,1019.92
2018-09-09T06:22:24.822Z,1019.89
2018-09-09T06:23:24.839Z,1019.92
2018-09-09T06:24:24.865Z,1019.93
2018-09-09T06:25:24.889Z,1019.93
2018-09-09T06:26:24.910Z,1019.95
2018-09-09T06:27:24.938Z,1019.92
2018-09-09T06:28:25.004Z,1019.96
2018-09-09T06:29:24.982Z,1020.00
2018-09-09T06:30:25.006Z,1020.04
2018-09-09T06:31:25.031Z,1020.06
2018-09-09T06:32:25.059Z,1020.01
2018-09-09T06:33:25.076Z,1020.06
2018-09-09T06:34:25.099Z,1020.06
2018-09-09T06:35:25.119Z,1020.08
2018-09-09T06:36:25.144Z,1020.08
2018-09-09T06:37:25.168Z,1020.06
2018-09-09T06:38:25.207Z,1020.07
2018-09-09T06:39:25.219Z,1020.10
2018-09-09T06:40:25.238Z,1020.08
2018-09-09T06:41:25.256Z,1020.10
2018-09-09T06:42:25.293Z,1020.08
2018-09-09T06:43:25.308Z,1020.06
2018-09-09T06:44:25.330Z,1020.09
2018-09-09T06:45:25.358Z,1020.11
2018-09-09T06:46:25.425Z,1020.05
2018-09-09T06:47:25.400Z,1020.08
2018-09-09T06:48:25.427Z,1020.06
2018-09-09T06:49:25.443Z,1020.05
2018-09-09T06:50:25.478Z,1020.08
2018-09-09T06:51:25.621Z,1020.05
2018-09-09T06:52:25.520Z,1020.05
2018-09-09T06:53:25.546Z,1020.09
2018-09-09T06:54:25.560Z,1020.07
2018-09-09T06:55:25.595Z,1020.11
2018-09-09T06:56:25.609Z,1020.12
2018-09-09T06:57:25.633Z,1020.12
2018-09-09T06:58:25.658Z,1020.11
2018-09-09T06:59:25.692Z,1020.14
2018-09-09T07:00:25.702Z,1020.13
2018-09-09T07:01:25.732Z,1020.13
2018-09-09T07:02:25.887Z,1020.13
2018-09-09T07:03:25.778Z,1020.16
2018-09-09T07:04:25.803Z,1020.17
2018-09-09T07:05:25.823Z,1020.14
2018-09-09T07:06:25.842Z,1020.23
2018-09-09T07:07:25.867Z,1020.21
2018-09-09T07:08:25.896Z,1020.22
2018-09-09T07:09:25.920Z,1020.26
2018-09-09T07:10:25.944Z,1020.30
2018-09-09T07:11:26.124Z,1020.29
2018-09-09T07:12:25.992Z,1020.31
2018-09-09T07:13:26.015Z,1020.36
2018-09-09T07:14:26.040Z,1020.32
2018-09-09T07:15:26.057Z,1020.30
2018-09-09T07:16:26.082Z,1020.31
2018-09-09T07:17:26.106Z,1020.34
2018-09-09T07:18:26.126Z,1020.34
2018-09-09T07:19:26.161Z,1020.32
2018-09-09T07:20:26.179Z,1020.34
2018-09-09T07:21:26.203Z,1020.35
2018-09-09T07:22:26.225Z,1020.35
2018-09-09T07:23:26.248Z,1020.39
2018-09-09T07:24:26.276Z,1020.39
2018-09-09T07:25:26.300Z,1020.42
2018-09-09T07:26:26.318Z,1020.43
2018-09-09T07:27:26.344Z,1020.40
2018-09-09T07:28:26.389Z,1020.46
2018-09-09T07:29:26.394Z,1020.39
2018-09-09T07:30:26.417Z,1020.43
2018-09-09T07:31:26.443Z,1020.40
2018-09-09T07:32:26.468Z,1020.41
2018-09-09T07:33:26.489Z,1020.38
2018-09-09T07:34:26.511Z,1020.38
2018-09-09T07:35:26.531Z,1020.40
2018-09-09T07:36:26.560Z,1020.38
2018-09-09T07:37:26.631Z,1020.42
2018-09-09T07:38:26.613Z,1020.43
2018-09-09T07:39:26.632Z,1020.44
2018-09-09T07:40:26.661Z,1020.47
2018-09-09T07:41:26.680Z,1020.51
2018-09-09T07:42:26.706Z,1020.48
2018-09-09T07:43:26.731Z,1020.51
2018-09-09T07:44:26.759Z,1020.47
2018-09-09T07:45:26.775Z,1020.46
2018-09-09T07:46:26.863Z,1020.52
2018-09-09T07:47:27.236Z,1020.53
2018-09-09T07:48:26.847Z,1020.46
2018-09-09T07:49:26.881Z,1020.47
2018-09-09T07:50:26.897Z,1020.46
2018-09-09T07:51:26.950Z,1020.45
2018-09-09T07:52:26.946Z,1020.44
2018-09-09T07:53:26.975Z,1020.45
2018-09-09T07:54:27.003Z,1020.49
2018-09-09T07:55:27.026Z,1020.46
2018-09-09T07:56:27.043Z,1020.48
2018-09-09T07:57:27.073Z,1020.48
2018-09-09T07:58:27.092Z,1020.45
2018-09-09T07:59:27.116Z,1020.49
2018-09-09T08:00:27.174Z,1020.51
2018-09-09T08:01:27.169Z,1020.50
2018-09-09T08:02:27.195Z,1020.51
2018-09-09T08:03:27.216Z,1020.52
2018-09-09T08:04:27.242Z,1020.54
2018-09-09T08:05:27.260Z,1020.56
2018-09-09T08:06:27.285Z,1020.58
2018-09-09T08:07:27.316Z,1020.58
2018-09-09T08:08:27.337Z,1020.58
2018-09-09T08:09:27.367Z,1020.59
2018-09-09T08:10:27.387Z,1020.65
2018-09-09T08:11:27.411Z,1020.59
2018-09-09T08:12:27.429Z,1020.67
2018-09-09T08:13:27.459Z,1020.70
2018-09-09T08:14:27.501Z,1020.76
2018-09-09T08:15:27.541Z,1020.74
2018-09-09T08:16:27.539Z,1020.74
2018-09-09T08:17:27.561Z,1020.77
2018-09-09T08:18:27.644Z,1020.78
2018-09-09T08:19:27.607Z,1020.76
2018-09-09T08:20:27.629Z,1020.78
2018-09-09T08:21:27.655Z,1020.78
2018-09-09T08:22:27.680Z,1020.79
2018-09-09T08:23:27.762Z,1020.78
2018-09-09T08:24:27.733Z,1020.76
2018-09-09T08:25:27.754Z,1020.82
2018-09-09T08:26:27.784Z,1020.83
2018-09-09T08:27:27.807Z,1020.81
2018-09-09T08:28:27.828Z,1020.86
2018-09-09T08:29:27.853Z,1020.91
2018-09-09T08:30:27.879Z,1020.88
2018-09-09T08:31:27.913Z,1020.89
2018-09-09T08:32:27.925Z,1020.90
2018-09-09T08:33:27.954Z,1020.86
2018-09-09T08:34:27.974Z,1020.87
2018-09-09T08:35:28.000Z,1020.89
2018-09-09T08:36:28.023Z,1020.87
2018-09-09T08:37:28.062Z,1020.84
2018-09-09T08:38:28.075Z,1020.87
2018-09-09T08:39:28.110Z,1020.88
2018-09-09T08:40:28.127Z,1020.86
2018-09-09T08:41:28.155Z,1020.87
2018-09-09T08:42:28.180Z,1020.89
2018-09-09T08:43:28.199Z,1020.86
2018-09-09T08:44:28.226Z,1020.87
2018-09-09T08:45:28.286Z,1020.86
2018-09-09T08:46:28.274Z,1020.91
2018-09-09T08:47:28.300Z,1020.90
2018-09-09T08:48:28.325Z,1020.88
2018-09-09T08:49:28.347Z,1020.86
2018-09-09T08:50:28.376Z,1020.86
2018-09-09T08:51:28.406Z,1020.88
2018-09-09T08:52:28.424Z,1020.86
2018-09-09T08:53:28.452Z,1020.85
2018-09-09T08:54:28.480Z,1020.85
2018-09-09T08:55:28.514Z,1020.85
2018-09-09T08:56:28.524Z,1020.85
2018-09-09T08:57:28.608Z,1020.85
2018-09-09T08:58:28.580Z,1020.84
2018-09-09T08:59:28.603Z,1020.88
2018-09-09T09:00:28.631Z,1020.85
2018-09-09T09:01:28.657Z,1020.87
2018-09-09T09:02:28.683Z,1020.91
2018-09-09T09:03:28.706Z,1020.86
2018-09-09T09:04:28.729Z,1020.86
2018-09-09T09:05:28.756Z,1020.93
2018-09-09T09:06:28.785Z,1020.95
2018-09-09T09:07:28.887Z,1020.92
2018-09-09T09:08:28.827Z,1020.91
2018-09-09T09:09:28.856Z,1020.89
2018-09-09T09:10:28.884Z,1020.91
2018-09-09T09:11:28.906Z,1020.92
2018-09-09T09:12:28.944Z,1020.94
2018-09-09T09:13:28.964Z,1020.86
2018-09-09T09:14:28.986Z,1020.91
2018-09-09T09:15:29.010Z,1020.98
2018-09-09T09:16:29.036Z,1020.95
2018-09-09T09:17:29.064Z,1020.97
2018-09-09T09:18:29.106Z,1020.97
2018-09-09T09:19:29.114Z,1020.95
2018-09-09T09:20:29.153Z,1020.94
2018-09-09T09:21:29.167Z,1020.88
2018-09-09T09:22:29.199Z,1020.91
2018-09-09T09:23:29.245Z,1020.93
2018-09-09T09:24:29.248Z,1020.93
2018-09-09T09:25:29.270Z,1020.91
2018-09-09T09:26:29.292Z,1020.94
2018-09-09T09:27:29.328Z,1020.91
2018-09-09T09:28:29.348Z,1020.92
2018-09-09T09:29:29.372Z,1020.86
2018-09-09T09:30:29.400Z,1020.82
2018-09-09T09:31:29.422Z,1020.79
2018-09-09T09:32:29.449Z,1020.74
2018-09-09T09:33:29.476Z,1020.70
2018-09-09T09:34:29.507Z,1020.63
2018-09-09T09:35:29.529Z,1020.71
2018-09-09T09:36:29.555Z,1020.62
2018-09-09T09:37:29.580Z,1020.55
2018-09-09T09:38:29.610Z,1020.54
2018-09-09T09:39:29.741Z,1020.53
2018-09-09T09:40:29.661Z,1020.54
2018-09-09T09:41:29.678Z,1020.53
2018-09-09T09:42:29.712Z,1020.55
2018-09-09T09:43:29.736Z,1020.51
2018-09-09T09:44:29.759Z,1020.54
2018-09-09T09:45:29.788Z,1020.54
2018-09-09T09:46:29.810Z,1020.57
2018-09-09T09:47:29.833Z,1020.56
2018-09-09T09:48:29.859Z,1020.59
2018-09-09T09:49:29.890Z,1020.56
2018-09-09T09:50:29.911Z,1020.56
2018-09-09T09:51:29.936Z,1020.59
2018-09-09T09:52:29.960Z,1020.59
2018-09-09T09:53:30.012Z,1020.60
2018-09-09T09:54:30.018Z,1020.65
2018-09-09T09:55:30.074Z,1020.63
2018-09-09T09:56:30.067Z,1020.60
2018-09-09T09:57:30.097Z,1020.67
2018-09-09T09:58:30.119Z,1020.67
2018-09-09T09:59:30.138Z,1020.72
2018-09-09T10:00:30.166Z,1020.73
2018-09-09T10:01:30.194Z,1020.80
2018-09-09T10:02:30.216Z,1020.90
2018-09-09T10:03:30.311Z,1021.00
2018-09-09T10:04:30.266Z,1021.05
2018-09-09T10:05:30.294Z,1021.11
2018-09-09T10:06:30.317Z,1021.05
2018-09-09T10:07:30.346Z,1020.90
2018-09-09T10:08:30.374Z,1020.83
2018-09-09T10:09:30.398Z,1020.95
2018-09-09T10:10:30.421Z,1020.94
2018-09-09T10:11:30.444Z,1020.93
2018-09-09T10:12:30.470Z,1020.95
2018-09-09T10:13:30.504Z,1020.83
2018-09-09T10:14:30.530Z,1020.85
2018-09-09T10:15:30.552Z,1020.78
2018-09-09T10:16:30.588Z,1020.75
2018-09-09T10:17:30.601Z,1020.71
2018-09-09T10:18:30.636Z,1020.74
2018-09-09T10:19:30.662Z,1020.78
2018-09-09T10:20:30.683Z,1020.80
2018-09-09T10:21:30.713Z,1020.74
2018-09-09T10:22:30.735Z,1020.80
2018-09-09T10:23:30.763Z,1020.80
2018-09-09T10:24:30.806Z,1020.78
2018-09-09T10:25:30.812Z,1020.79
2018-09-09T10:26:30.838Z,1020.77
2018-09-09T10:27:30.871Z,1020.90
2018-09-09T10:28:30.900Z,1020.93
2018-09-09T10:29:30.928Z,1020.92
2018-09-09T10:30:30.949Z,1021.01
2018-09-09T10:31:30.979Z,1021.01
2018-09-09T10:32:31.002Z,1020.95
2018-09-09T10:33:31.028Z,1020.97
2018-09-09T10:34:31.052Z,1020.90
2018-09-09T10:35:31.084Z,1020.90
2018-09-09T10:36:31.102Z,1020.91
2018-09-09T10:37:31.130Z,1020.84
2018-09-09T10:38:31.160Z,1020.83
2018-09-09T10:39:31.185Z,1020.85
2018-09-09T10:40:31.213Z,1020.86
2018-09-09T10:41:31.242Z,1020.83
2018-09-09T10:42:31.263Z,1020.79
2018-09-09T10:43:31.289Z,1020.79
2018-09-09T10:44:31.319Z,1020.85
2018-09-09T10:45:31.350Z,1020.85
2018-09-09T10:46:31.484Z,1020.84
2018-09-09T10:47:31.401Z,1020.85
2018-09-09T10:48:31.430Z,1020.83
2018-09-09T10:49:31.454Z,1020.85
2018-09-09T10:50:31.484Z,1020.89
2018-09-09T10:51:31.509Z,1020.89
2018-09-09T10:52:31.540Z,1020.91
2018-09-09T10:53:31.568Z,1021.00
2018-09-09T10:54:31.589Z,1021.03
2018-09-09T10:55:31.613Z,1020.97
2018-09-09T10:56:31.644Z,1021.05
2018-09-09T10:57:31.672Z,1021.01
2018-09-09T10:58:31.697Z,1021.03
2018-09-09T10:59:31.723Z,1021.16
2018-09-09T11:00:31.751Z,1021.19
2018-09-09T11:01:31.782Z,1021.22
2018-09-09T11:02:31.803Z,1021.27
2018-09-09T11:03:31.831Z,1021.20
2018-09-09T11:04:31.860Z,1021.39
2018-09-09T11:05:31.892Z,1021.32
2018-09-09T11:06:31.920Z,1021.31
2018-09-09T11:07:31.946Z,1021.45
2018-09-09T11:08:31.970Z,1021.58
2018-09-09T11:09:31.998Z,1021.38
2018-09-09T11:10:32.030Z,1021.35
2018-09-09T11:11:32.064Z,1021.32
2018-09-09T11:12:32.142Z,1021.43
2018-09-09T11:13:32.118Z,1021.33
2018-09-09T11:14:32.152Z,1021.23
2018-09-09T11:15:32.176Z,1021.08
2018-09-09T11:16:32.206Z,1021.13
2018-09-09T11:17:32.244Z,1021.09
2018-09-09T11:18:32.274Z,1021.24
2018-09-09T11:19:32.302Z,1021.29
2018-09-09T11:20:32.338Z,1021.28
2018-09-09T11:21:32.377Z,1021.23
2018-09-09T11:22:32.420Z,1021.34
2018-09-09T11:23:32.427Z,1021.37
2018-09-09T11:24:32.528Z,1021.46
2018-09-09T11:25:32.496Z,1021.37
2018-09-09T11:26:32.532Z,1021.60
2018-09-09T11:27:32.562Z,1021.86
2018-09-09T11:28:32.596Z,1021.91
2018-09-09T11:29:32.637Z,1021.85
2018-09-09T11:30:32.683Z,1021.75
2018-09-09T11:31:32.706Z,1021.75
2018-09-09T11:32:32.736Z,1021.62
2018-09-09T11:33:32.772Z,1021.68
2018-09-09T11:34:32.804Z,1021.62
2018-09-09T11:35:32.832Z,1021.55
2018-09-09T11:36:32.870Z,1021.56
2018-09-09T11:37:32.905Z,1021.47
2018-09-09T11:38:32.938Z,1021.47
2018-09-09T11:39:33.012Z,1021.46
2018-09-09T11:40:33.055Z,1021.72
2018-09-09T11:41:33.040Z,1021.70
2018-09-09T11:42:33.080Z,1021.55
2018-09-09T11:43:33.108Z,1021.55
2018-09-09T11:44:33.146Z,1021.37
2018-09-09T11:45:33.176Z,1021.27
2018-09-09T11:46:33.213Z,1021.24
2018-09-09T11:47:33.251Z,1021.24
2018-09-09T11:48:33.284Z,1021.20
2018-09-09T11:49:33.324Z,1021.24
2018-09-09T11:50:33.352Z,1021.21
2018-09-09T11:51:33.388Z,1021.23
2018-09-09T11:52:33.422Z,1021.25
2018-09-09T11:53:33.456Z,1021.39
2018-09-09T11:54:33.495Z,1021.39
2018-09-09T11:55:33.514Z,1021.62
2018-09-09T11:56:33.558Z,1021.71
2018-09-09T11:57:33.588Z,1021.82
2018-09-09T11:58:33.621Z,1021.77
2018-09-09T11:59:33.656Z,1021.35
2018-09-09T12:00:33.682Z,1021.01
2018-09-09T12:01:33.713Z,1020.73
2018-09-09T12:02:33.748Z,1021.12
2018-09-09T12:03:33.779Z,1020.53
2018-09-09T12:04:33.810Z,1021.00
2018-09-09T12:05:33.845Z,1021.00